createdAt,value
2024-03-16T00:01:04.002Z,99578.59
2024-03-16T00:03:30.749Z,99577.28
2024-03-16T00:06:00.294Z,99585.81
2024-03-16T00:08:28.885Z,99590.16
2024-03-16T00:10:55.619Z,99584.84
2024-03-16T00:13:22.120Z,99590.16
2024-03-16T00:15:50.551Z,99583.66
2024-03-16T00:18:17.380Z,99577.84
2024-03-16T00:20:43.950Z,99581.59
2024-03-16T00:23:10.517Z,99587.63
2024-03-16T00:25:37.074Z,99576.78
2024-03-16T00:28:03.872Z,99588.84
2024-03-16T00:30:31.163Z,99585.34
2024-03-16T00:32:57.755Z,99582.47
2024-03-16T00:35:25.693Z,99582.34
2024-03-16T00:37:52.280Z,99578.34
2024-03-16T00:40:20.484Z,99585.47
2024-03-16T00:42:47.522Z,99581.97
2024-03-16T00:45:14.289Z,99582.19
2024-03-16T00:47:40.871Z,99582.19
2024-03-16T00:50:07.820Z,99587.38
2024-03-16T00:52:34.343Z,99578.59
2024-03-16T00:55:00.892Z,99581.97
2024-03-16T00:57:27.425Z,99583.06
2024-03-16T00:59:55.748Z,99586.06
2024-03-16T01:02:22.315Z,99573.06
2024-03-16T01:04:48.866Z,99578.22
2024-03-16T01:07:16.263Z,99587.97
2024-03-16T01:09:43.075Z,99590.25
2024-03-16T01:12:09.569Z,99587.72
2024-03-16T01:14:36.121Z,99574.00
2024-03-16T01:17:03.255Z,99584.59
2024-03-16T01:19:30.148Z,99582.06
2024-03-16T01:21:56.768Z,99583.75
2024-03-16T01:24:23.306Z,99583.63
2024-03-16T01:26:50.233Z,99585.88
2024-03-16T01:29:16.987Z,99595.31
2024-03-16T01:31:43.613Z,99589.06
2024-03-16T01:34:10.261Z,99584.78
2024-03-16T01:36:36.932Z,99581.94
2024-03-16T01:39:04.236Z,99582.56
2024-03-16T01:41:31.040Z,99579.28
2024-03-16T01:44:10.197Z,99580.13
2024-03-16T01:46:36.748Z,99587.59
2024-03-16T01:49:03.289Z,99581.22
2024-03-16T01:51:33.005Z,99578.69
2024-03-16T01:53:59.521Z,99577.75
2024-03-16T01:56:26.164Z,99580.28
2024-03-16T01:58:52.731Z,99579.53
2024-03-16T02:01:19.444Z,99575.31
2024-03-16T02:03:47.824Z,99576.38
2024-03-16T02:06:14.491Z,99566.25
2024-03-16T02:08:41.837Z,99577.25
2024-03-16T02:11:08.498Z,99572.53
2024-03-16T02:13:35.150Z,99575.66
2024-03-16T02:16:03.183Z,99589.59
2024-03-16T02:18:29.827Z,99582.16
2024-03-16T02:20:56.920Z,99578.88
2024-03-16T02:23:23.922Z,99593.06
2024-03-16T02:25:51.610Z,99600.19
2024-03-16T02:28:18.147Z,99593.41
2024-03-16T02:30:44.882Z,99582.44
2024-03-16T02:33:11.784Z,99585.34
2024-03-16T02:35:39.287Z,99601.31
2024-03-16T02:38:05.902Z,99599.34
2024-03-16T02:40:32.988Z,99605.38
2024-03-16T02:42:59.548Z,99594.63
2024-03-16T02:45:26.322Z,99604.38
2024-03-16T02:47:53.357Z,99596.03
2024-03-16T02:50:20.990Z,99603.53
2024-03-16T02:52:47.673Z,99610.13
2024-03-16T02:55:14.948Z,99613.09
2024-03-16T02:57:41.623Z,99608.88
2024-03-16T03:00:12.065Z,99621.47
2024-03-16T03:02:39.289Z,99621.47
2024-03-16T03:05:09.007Z,99612.81
2024-03-16T03:07:35.494Z,99617.88
2024-03-16T03:10:02.178Z,99616.38
2024-03-16T03:12:29.238Z,99615.44
2024-03-16T03:14:55.894Z,99628.78
2024-03-16T03:17:22.394Z,99611.41
2024-03-16T03:19:49.861Z,99608.06
2024-03-16T03:22:16.520Z,99617.31
2024-03-16T03:24:43.162Z,99612.78
2024-03-16T03:27:09.936Z,99616.25
2024-03-16T03:29:36.458Z,99627.34
2024-03-16T03:32:03.079Z,99630.75
2024-03-16T03:34:29.845Z,99626.63
2024-03-16T03:36:56.431Z,99625.66
2024-03-16T03:39:25.733Z,99620.84
2024-03-16T03:41:53.714Z,99625.88
2024-03-16T03:44:25.309Z,99630.56
2024-03-16T03:46:52.752Z,99632.81
2024-03-16T03:49:27.814Z,99633.88
2024-03-16T03:51:55.281Z,99636.22
2024-03-16T03:54:22.301Z,99646.81
2024-03-16T03:56:48.878Z,99646.69
2024-03-16T03:59:15.457Z,99646.91
2024-03-16T04:01:42.049Z,99651.88
2024-03-16T04:04:08.627Z,99657.91
2024-03-16T04:06:35.215Z,99641.91
2024-03-16T04:09:01.709Z,99637.47
2024-03-16T04:11:28.271Z,99651.94
2024-03-16T04:13:54.735Z,99653.13
2024-03-16T04:16:21.320Z,99657.25
2024-03-16T04:18:47.981Z,99660.72
2024-03-16T04:21:14.630Z,99673.63
2024-03-16T04:23:41.429Z,99666.53
2024-03-16T04:26:08.356Z,99665.81
2024-03-16T04:28:34.878Z,99673.75
2024-03-16T04:31:01.423Z,99672.88
2024-03-16T04:33:28.555Z,99683.47
2024-03-16T04:35:55.133Z,99672.16
2024-03-16T04:38:21.801Z,99660.94
2024-03-16T04:40:48.397Z,99669.44
2024-03-16T04:43:15.062Z,99673.97
2024-03-16T04:45:41.759Z,99676.63
2024-03-16T04:48:08.290Z,99689.53
2024-03-16T04:50:34.953Z,99685.31
2024-03-16T04:53:01.587Z,99679.06
2024-03-16T04:55:28.243Z,99682.78
2024-03-16T04:57:54.754Z,99698.66
2024-03-16T05:00:21.256Z,99686.38
2024-03-16T05:02:49.391Z,99697.34
2024-03-16T05:05:15.900Z,99697.47
2024-03-16T05:07:42.487Z,99696.72
2024-03-16T05:10:09.974Z,99698.53
2024-03-16T05:12:36.695Z,99700.13
2024-03-16T05:15:03.432Z,99696.72
2024-03-16T05:17:30.204Z,99694.41
2024-03-16T05:19:58.933Z,99692.50
2024-03-16T05:22:26.685Z,99682.78
2024-03-16T05:24:53.473Z,99687.19
2024-03-16T05:27:20.020Z,99683.09
2024-03-16T05:29:46.529Z,99692.38
2024-03-16T05:32:13.161Z,99688.38
2024-03-16T05:34:40.922Z,99692.91
2024-03-16T05:37:07.562Z,99691.13
2024-03-16T05:39:34.258Z,99696.19
2024-03-16T05:42:00.867Z,99686.56
2024-03-16T05:44:27.453Z,99689.13
2024-03-16T05:46:54.177Z,99685.72
2024-03-16T05:49:20.791Z,99691.66
2024-03-16T05:51:48.867Z,99696.72
2024-03-16T05:54:15.332Z,99703.69
2024-03-16T05:56:41.882Z,99715.97
2024-03-16T05:59:11.977Z,99717.88
2024-03-16T06:01:38.822Z,99721.69
2024-03-16T06:04:05.421Z,99725.28
2024-03-16T06:06:33.426Z,99738.31
2024-03-16T06:09:00.117Z,99744.56
2024-03-16T06:11:27.659Z,99751.44
2024-03-16T06:13:54.192Z,99753.53
2024-03-16T06:16:22.765Z,99747.28
2024-03-16T06:18:49.726Z,99751.72
2024-03-16T06:21:16.283Z,99751.59
2024-03-16T06:23:43.583Z,99750.03
2024-03-16T06:26:17.897Z,99752.78
2024-03-16T06:28:48.111Z,99757.00
2024-03-16T06:31:14.975Z,99750.88
2024-03-16T06:33:46.648Z,99756.91
2024-03-16T06:36:13.396Z,99760.94
2024-03-16T06:38:39.920Z,99758.06
2024-03-16T06:41:06.511Z,99760.16
2024-03-16T06:43:33.678Z,99760.16
2024-03-16T06:46:01.945Z,99768.63
2024-03-16T06:48:36.710Z,99773.81
2024-03-16T06:51:03.413Z,99781.75
2024-03-16T06:53:30.055Z,99786.03
2024-03-16T06:55:56.633Z,99789.78
2024-03-16T06:58:23.804Z,99793.09
2024-03-16T07:00:50.374Z,99807.59
2024-03-16T07:03:16.956Z,99801.25
2024-03-16T07:05:43.440Z,99814.25
2024-03-16T07:08:11.899Z,99814.13
2024-03-16T07:10:39.146Z,99815.31
2024-03-16T07:13:07.671Z,99809.06
2024-03-16T07:15:34.278Z,99827.28
2024-03-16T07:18:00.901Z,99820.06
2024-03-16T07:20:27.463Z,99821.63
2024-03-16T07:22:55.345Z,99827.56
2024-03-16T07:25:21.969Z,99832.66
2024-03-16T07:27:49.120Z,99833.19
2024-03-16T07:30:18.207Z,99836.22
2024-03-16T07:32:44.762Z,99829.00
2024-03-16T07:35:11.294Z,99841.28
2024-03-16T07:37:37.733Z,99849.03
2024-03-16T07:40:05.325Z,99850.38
2024-03-16T07:42:31.860Z,99854.28
2024-03-16T07:44:58.337Z,99854.06
2024-03-16T07:47:24.975Z,99863.47
2024-03-16T07:49:53.204Z,99867.00
2024-03-16T07:52:19.750Z,99867.09
2024-03-16T07:54:46.243Z,99862.75
2024-03-16T07:57:12.720Z,99869.53
2024-03-16T07:59:39.533Z,99868.56
2024-03-16T08:02:07.325Z,99870.34
2024-03-16T08:04:36.057Z,99880.22
2024-03-16T08:07:02.532Z,99870.34
2024-03-16T08:09:29.176Z,99887.81
2024-03-16T08:11:55.919Z,99872.69
2024-03-16T08:14:22.419Z,99879.56
2024-03-16T08:16:48.967Z,99877.53
2024-03-16T08:19:17.742Z,99879.13
2024-03-16T08:21:44.412Z,99890.22
2024-03-16T08:24:10.881Z,99889.16
2024-03-16T08:26:37.349Z,99898.94
2024-03-16T08:29:03.830Z,99893.16
2024-03-16T08:31:30.485Z,99898.97
2024-03-16T08:33:57.260Z,99893.56
2024-03-16T08:36:24.447Z,99894.69
2024-03-16T08:38:50.922Z,99897.75
2024-03-16T08:41:17.403Z,99898.00
2024-03-16T08:43:44.831Z,99903.59
2024-03-16T08:46:11.410Z,99907.47
2024-03-16T08:48:38.050Z,99913.72
2024-03-16T08:51:05.794Z,99920.84
2024-03-16T08:53:32.684Z,99924.75
2024-03-16T08:56:00.963Z,99927.41
2024-03-16T08:58:27.464Z,99922.72
2024-03-16T09:00:54.658Z,99929.19
2024-03-16T09:03:21.346Z,99923.50
2024-03-16T09:05:48.870Z,99921.09
2024-03-16T09:08:15.348Z,99930.97
2024-03-16T09:10:41.828Z,99925.91
2024-03-16T09:13:08.862Z,99933.09
2024-03-16T09:15:35.490Z,99935.63
2024-03-16T09:18:02.055Z,99936.25
2024-03-16T09:20:28.531Z,99933.03
2024-03-16T09:22:57.241Z,99943.69
2024-03-16T09:25:23.893Z,99942.19
2024-03-16T09:27:50.415Z,99949.59
2024-03-16T09:30:19.106Z,99949.59
2024-03-16T09:32:45.601Z,99950.41
2024-03-16T09:35:12.331Z,99956.59
2024-03-16T09:37:38.986Z,99955.59
2024-03-16T09:40:11.388Z,99956.13
2024-03-16T09:42:38.458Z,99955.38
